sensor_id;sensor_type;location;lat;lon;timestamp;P1;durP1;ratioP1;P2;durP2;ratioP2
69532;SDS011;56729;52.036;5.332;2022-10-16T00:00:56;18.20;;;3.17;;
69532;SDS011;56729;52.036;5.332;2022-10-16T00:01:57;11.82;;;3.00;;
69532;SDS011;56729;52.036;5.332;2022-10-16T00:03:00;5.40;;;2.10;;
69532;SDS011;56729;52.036;5.332;2022-10-16T00:04:02;17.30;;;2.90;;
69532;SDS011;56729;52.036;5.332;2022-10-16T00:05:04;11.15;;;2.72;;
69532;SDS011;56729;52.036;5.332;2022-10-16T00:06:06;13.13;;;2.90;;
69532;SDS011;56729;52.036;5.332;2022-10-16T00:07:09;23.10;;;3.23;;
69532;SDS011;56729;52.036;5.332;2022-10-16T00:08:11;17.60;;;6.32;;
69532;SDS011;56729;52.036;5.332;2022-10-16T00:09:14;13.55;;;3.40;;
69532;SDS011;56729;52.036;5.332;2022-10-16T00:10:16;10.43;;;3.15;;
69532;SDS011;56729;52.036;5.332;2022-10-16T00:11:19;6.50;;;3.22;;
69532;SDS011;56729;52.036;5.332;2022-10-16T00:12:22;11.85;;;3.45;;
69532;SDS011;56729;52.036;5.332;2022-10-16T00:13:25;8.38;;;2.67;;
69532;SDS011;56729;52.036;5.332;2022-10-16T00:14:27;11.60;;;2.75;;
69532;SDS011;56729;52.036;5.332;2022-10-16T00:15:29;13.65;;;2.40;;
69532;SDS011;56729;52.036;5.332;2022-10-16T00:16:34;10.07;;;3.88;;
69532;SDS011;56729;52.036;5.332;2022-10-16T00:17:36;15.30;;;2.73;;
69532;SDS011;56729;52.036;5.332;2022-10-16T00:18:38;16.27;;;3.47;;
69532;SDS011;56729;52.036;5.332;2022-10-16T00:19:40;8.63;;;2.83;;
69532;SDS011;56729;52.036;5.332;2022-10-16T00:20:42;8.98;;;2.90;;
69532;SDS011;56729;52.036;5.332;2022-10-16T00:21:44;11.75;;;2.97;;
69532;SDS011;56729;52.036;5.332;2022-10-16T00:22:46;16.92;;;3.05;;
69532;SDS011;56729;52.036;5.332;2022-10-16T00:23:51;15.18;;;3.53;;
69532;SDS011;56729;52.036;5.332;2022-10-16T00:24:54;15.90;;;3.05;;
69532;SDS011;56729;52.036;5.332;2022-10-16T00:25:57;13.93;;;3.00;;
69532;SDS011;56729;52.036;5.332;2022-10-16T00:27:00;9.05;;;2.88;;
69532;SDS011;56729;52.036;5.332;2022-10-16T00:28:02;17.30;;;3.17;;
69532;SDS011;56729;52.036;5.332;2022-10-16T00:29:04;12.70;;;3.30;;
69532;SDS011;56729;52.036;5.332;2022-10-16T00:30:07;17.65;;;3.38;;
69532;SDS011;56729;52.036;5.332;2022-10-16T00:31:10;12.43;;;3.38;;
69532;SDS011;56729;52.036;5.332;2022-10-16T00:32:13;12.70;;;3.53;;
69532;SDS011;56729;52.036;5.332;2022-10-16T00:33:15;12.57;;;3.15;;
69532;SDS011;56729;52.036;5.332;2022-10-16T00:34:17;16.75;;;3.28;;
69532;SDS011;56729;52.036;5.332;2022-10-16T00:35:19;8.50;;;3.22;;
69532;SDS011;56729;52.036;5.332;2022-10-16T00:36:21;9.27;;;2.90;;
69532;SDS011;56729;52.036;5.332;2022-10-16T00:37:25;11.75;;;3.25;;
69532;SDS011;56729;52.036;5.332;2022-10-16T00:38:27;22.33;;;3.33;;
69532;SDS011;56729;52.036;5.332;2022-10-16T00:39:29;15.60;;;4.10;;
69532;SDS011;56729;52.036;5.332;2022-10-16T00:40:31;12.07;;;3.28;;
69532;SDS011;56729;52.036;5.332;2022-10-16T00:41:33;12.85;;;3.05;;
69532;SDS011;56729;52.036;5.332;2022-10-16T00:42:35;8.77;;;3.10;;
69532;SDS011;56729;52.036;5.332;2022-10-16T00:44:56;15.98;;;3.15;;
69532;SDS011;56729;52.036;5.332;2022-10-16T00:45:59;12.30;;;4.97;;
69532;SDS011;56729;52.036;5.332;2022-10-16T00:47:02;16.85;;;5.10;;
69532;SDS011;56729;52.036;5.332;2022-10-16T00:48:06;13.68;;;2.90;;
69532;SDS011;56729;52.036;5.332;2022-10-16T00:49:15;12.90;;;3.40;;
69532;SDS011;56729;52.036;5.332;2022-10-16T00:50:32;10.40;;;2.95;;
69532;SDS011;56729;52.036;5.332;2022-10-16T00:51:36;9.38;;;3.58;;
69532;SDS011;56729;52.036;5.332;2022-10-16T00:52:49;20.08;;;4.25;;
69532;SDS011;56729;52.036;5.332;2022-10-16T00:53:52;12.38;;;4.40;;
69532;SDS011;56729;52.036;5.332;2022-10-16T00:54:54;16.20;;;4.50;;
69532;SDS011;56729;52.036;5.332;2022-10-16T00:55:57;18.20;;;4.15;;
69532;SDS011;56729;52.036;5.332;2022-10-16T00:57:00;10.65;;;4.53;;
69532;SDS011;56729;52.036;5.332;2022-10-16T00:58:04;11.45;;;4.10;;
69532;SDS011;56729;52.036;5.332;2022-10-16T00:59:08;14.07;;;4.45;;
69532;SDS011;56729;52.036;5.332;2022-10-16T01:00:27;16.20;;;4.30;;
69532;SDS011;56729;52.036;5.332;2022-10-16T01:01:29;12.70;;;6.60;;
69532;SDS011;56729;52.036;5.332;2022-10-16T01:02:31;13.18;;;5.05;;
69532;SDS011;56729;52.036;5.332;2022-10-16T01:03:34;23.08;;;6.97;;
69532;SDS011;56729;52.036;5.332;2022-10-16T01:04:38;14.90;;;5.85;;
69532;SDS011;56729;52.036;5.332;2022-10-16T01:05:54;22.17;;;5.65;;
69532;SDS011;56729;52.036;5.332;2022-10-16T01:08:39;24.13;;;7.47;;
69532;SDS011;56729;52.036;5.332;2022-10-16T01:10:57;25.08;;;7.55;;
69532;SDS011;56729;52.036;5.332;2022-10-16T01:13:38;16.67;;;6.40;;
69532;SDS011;56729;52.036;5.332;2022-10-16T01:14:53;16.92;;;5.43;;
69532;SDS011;56729;52.036;5.332;2022-10-16T01:16:28;14.77;;;6.10;;
69532;SDS011;56729;52.036;5.332;2022-10-16T01:18:00;22.70;;;6.20;;
69532;SDS011;56729;52.036;5.332;2022-10-16T01:19:12;11.35;;;5.78;;
69532;SDS011;56729;52.036;5.332;2022-10-16T01:20:23;10.85;;;5.38;;
69532;SDS011;56729;52.036;5.332;2022-10-16T01:21:31;19.08;;;6.47;;
69532;SDS011;56729;52.036;5.332;2022-10-16T01:22:47;11.18;;;5.57;;
69532;SDS011;56729;52.036;5.332;2022-10-16T01:25:05;15.90;;;5.67;;
69532;SDS011;56729;52.036;5.332;2022-10-16T01:26:28;17.52;;;6.15;;
69532;SDS011;56729;52.036;5.332;2022-10-16T01:27:32;20.48;;;7.05;;
69532;SDS011;56729;52.036;5.332;2022-10-16T01:28:49;15.48;;;5.90;;
69532;SDS011;56729;52.036;5.332;2022-10-16T01:30:02;12.20;;;5.60;;
69532;SDS011;56729;52.036;5.332;2022-10-16T01:31:11;21.08;;;6.32;;
69532;SDS011;56729;52.036;5.332;2022-10-16T01:32:24;18.63;;;6.18;;
69532;SDS011;56729;52.036;5.332;2022-10-16T01:33:49;13.63;;;6.43;;
69532;SDS011;56729;52.036;5.332;2022-10-16T01:34:59;12.30;;;5.50;;
69532;SDS011;56729;52.036;5.332;2022-10-16T01:36:24;21.65;;;6.63;;
69532;SDS011;56729;52.036;5.332;2022-10-16T01:38:03;14.27;;;5.13;;
69532;SDS011;56729;52.036;5.332;2022-10-16T01:38:58;13.55;;;5.55;;
69532;SDS011;56729;52.036;5.332;2022-10-16T01:40:05;16.45;;;7.15;;
69532;SDS011;56729;52.036;5.332;2022-10-16T01:41:16;16.90;;;6.57;;
69532;SDS011;56729;52.036;5.332;2022-10-16T01:42:28;16.02;;;6.65;;
69532;SDS011;56729;52.036;5.332;2022-10-16T01:43:40;25.17;;;7.40;;
69532;SDS011;56729;52.036;5.332;2022-10-16T01:44:48;15.00;;;6.45;;
69532;SDS011;56729;52.036;5.332;2022-10-16T01:45:51;11.73;;;5.53;;
69532;SDS011;56729;52.036;5.332;2022-10-16T01:46:54;17.08;;;6.20;;
69532;SDS011;56729;52.036;5.332;2022-10-16T01:47:57;21.50;;;7.22;;
69532;SDS011;56729;52.036;5.332;2022-10-16T01:49:01;21.17;;;7.87;;
69532;SDS011;56729;52.036;5.332;2022-10-16T01:50:05;18.35;;;6.45;;
69532;SDS011;56729;52.036;5.332;2022-10-16T01:51:10;20.30;;;6.78;;
69532;SDS011;56729;52.036;5.332;2022-10-16T01:52:16;17.30;;;6.50;;
69532;SDS011;56729;52.036;5.332;2022-10-16T01:53:22;15.40;;;5.85;;
69532;SDS011;56729;52.036;5.332;2022-10-16T01:54:26;17.83;;;5.78;;
69532;SDS011;56729;52.036;5.332;2022-10-16T01:55:31;13.50;;;5.90;;
69532;SDS011;56729;52.036;5.332;2022-10-16T01:56:38;12.63;;;5.32;;
69532;SDS011;56729;52.036;5.332;2022-10-16T01:57:42;13.25;;;4.20;;
69532;SDS011;56729;52.036;5.332;2022-10-16T01:58:53;12.13;;;4.78;;
69532;SDS011;56729;52.036;5.332;2022-10-16T02:00:05;20.40;;;4.83;;
69532;SDS011;56729;52.036;5.332;2022-10-16T02:01:13;27.00;;;5.85;;
69532;SDS011;56729;52.036;5.332;2022-10-16T02:02:20;14.20;;;5.35;;
69532;SDS011;56729;52.036;5.332;2022-10-16T02:03:24;11.25;;;5.43;;
69532;SDS011;56729;52.036;5.332;2022-10-16T02:04:28;20.17;;;5.85;;
69532;SDS011;56729;52.036;5.332;2022-10-16T02:06:43;20.55;;;6.10;;
69532;SDS011;56729;52.036;5.332;2022-10-16T02:07:45;16.65;;;5.80;;
69532;SDS011;56729;52.036;5.332;2022-10-16T02:08:49;16.48;;;6.38;;
69532;SDS011;56729;52.036;5.332;2022-10-16T02:09:51;11.93;;;5.38;;
69532;SDS011;56729;52.036;5.332;2022-10-16T02:10:52;13.70;;;8.70;;
69532;SDS011;56729;52.036;5.332;2022-10-16T02:11:57;12.70;;;5.13;;
69532;SDS011;56729;52.036;5.332;2022-10-16T02:13:06;17.27;;;5.22;;
69532;SDS011;56729;52.036;5.332;2022-10-16T02:14:09;8.48;;;4.40;;
69532;SDS011;56729;52.036;5.332;2022-10-16T02:15:11;11.30;;;4.53;;
69532;SDS011;56729;52.036;5.332;2022-10-16T02:16:13;8.50;;;4.72;;
69532;SDS011;56729;52.036;5.332;2022-10-16T02:17:16;20.60;;;5.50;;
69532;SDS011;56729;52.036;5.332;2022-10-16T02:18:19;11.18;;;4.30;;
69532;SDS011;56729;52.036;5.332;2022-10-16T02:19:21;12.52;;;4.30;;
69532;SDS011;56729;52.036;5.332;2022-10-16T02:20:25;18.65;;;5.30;;
69532;SDS011;56729;52.036;5.332;2022-10-16T02:21:30;21.70;;;5.40;;
69532;SDS011;56729;52.036;5.332;2022-10-16T02:22:40;15.38;;;4.82;;
69532;SDS011;56729;52.036;5.332;2022-10-16T02:25:04;11.02;;;5.18;;
69532;SDS011;56729;52.036;5.332;2022-10-16T02:26:12;12.65;;;4.30;;
69532;SDS011;56729;52.036;5.332;2022-10-16T02:28:39;12.00;;;4.80;;
69532;SDS011;56729;52.036;5.332;2022-10-16T02:29:47;12.00;;;4.63;;
69532;SDS011;56729;52.036;5.332;2022-10-16T02:30:58;13.85;;;4.53;;
69532;SDS011;56729;52.036;5.332;2022-10-16T02:32:04;18.00;;;4.72;;
69532;SDS011;56729;52.036;5.332;2022-10-16T02:33:09;11.63;;;3.70;;
69532;SDS011;56729;52.036;5.332;2022-10-16T02:34:17;15.73;;;4.10;;
69532;SDS011;56729;52.036;5.332;2022-10-16T02:35:21;11.38;;;3.88;;
69532;SDS011;56729;52.036;5.332;2022-10-16T02:36:26;8.57;;;4.10;;
69532;SDS011;56729;52.036;5.332;2022-10-16T02:37:28;15.52;;;4.10;;
69532;SDS011;56729;52.036;5.332;2022-10-16T02:38:31;9.60;;;3.92;;
69532;SDS011;56729;52.036;5.332;2022-10-16T02:39:34;9.02;;;3.97;;
69532;SDS011;56729;52.036;5.332;2022-10-16T02:40:36;8.85;;;4.40;;
69532;SDS011;56729;52.036;5.332;2022-10-16T02:41:39;12.02;;;4.22;;
69532;SDS011;56729;52.036;5.332;2022-10-16T02:42:41;12.57;;;4.57;;
69532;SDS011;56729;52.036;5.332;2022-10-16T02:43:43;12.23;;;3.93;;
69532;SDS011;56729;52.036;5.332;2022-10-16T02:44:45;14.50;;;4.60;;
69532;SDS011;56729;52.036;5.332;2022-10-16T02:45:46;19.23;;;4.03;;
69532;SDS011;56729;52.036;5.332;2022-10-16T02:46:49;14.20;;;4.70;;
69532;SDS011;56729;52.036;5.332;2022-10-16T02:47:51;24.17;;;4.55;;
69532;SDS011;56729;52.036;5.332;2022-10-16T02:48:53;19.95;;;4.40;;
69532;SDS011;56729;52.036;5.332;2022-10-16T02:49:55;10.80;;;3.70;;
69532;SDS011;56729;52.036;5.332;2022-10-16T02:50:56;9.68;;;3.75;;
69532;SDS011;56729;52.036;5.332;2022-10-16T02:51:59;9.70;;;4.00;;
69532;SDS011;56729;52.036;5.332;2022-10-16T02:53:01;16.67;;;4.45;;
69532;SDS011;56729;52.036;5.332;2022-10-16T02:54:03;14.40;;;4.00;;
69532;SDS011;56729;52.036;5.332;2022-10-16T02:55:05;12.35;;;3.92;;
69532;SDS011;56729;52.036;5.332;2022-10-16T02:56:07;9.95;;;4.07;;
69532;SDS011;56729;52.036;5.332;2022-10-16T02:57:09;9.55;;;4.10;;
69532;SDS011;56729;52.036;5.332;2022-10-16T02:58:11;7.80;;;3.63;;
69532;SDS011;56729;52.036;5.332;2022-10-16T02:59:13;8.90;;;3.03;;
69532;SDS011;56729;52.036;5.332;2022-10-16T03:00:16;13.73;;;4.28;;
69532;SDS011;56729;52.036;5.332;2022-10-16T03:01:18;11.75;;;4.47;;
69532;SDS011;56729;52.036;5.332;2022-10-16T03:02:20;12.77;;;3.60;;
69532;SDS011;56729;52.036;5.332;2022-10-16T03:03:22;9.63;;;3.95;;
69532;SDS011;56729;52.036;5.332;2022-10-16T03:04:24;12.80;;;4.07;;
69532;SDS011;56729;52.036;5.332;2022-10-16T03:05:26;10.15;;;4.07;;
69532;SDS011;56729;52.036;5.332;2022-10-16T03:06:28;13.45;;;3.80;;
69532;SDS011;56729;52.036;5.332;2022-10-16T03:07:30;16.13;;;3.72;;
69532;SDS011;56729;52.036;5.332;2022-10-16T03:08:32;12.85;;;3.95;;
69532;SDS011;56729;52.036;5.332;2022-10-16T03:09:34;20.50;;;4.15;;
69532;SDS011;56729;52.036;5.332;2022-10-16T03:10:36;9.32;;;3.30;;
69532;SDS011;56729;52.036;5.332;2022-10-16T03:11:38;10.57;;;4.65;;
69532;SDS011;56729;52.036;5.332;2022-10-16T03:12:40;8.43;;;3.58;;
69532;SDS011;56729;52.036;5.332;2022-10-16T03:13:41;9.38;;;3.28;;
69532;SDS011;56729;52.036;5.332;2022-10-16T03:14:43;18.47;;;4.40;;
69532;SDS011;56729;52.036;5.332;2022-10-16T03:15:45;10.25;;;3.92;;
69532;SDS011;56729;52.036;5.332;2022-10-16T03:16:47;11.25;;;2.85;;
69532;SDS011;56729;52.036;5.332;2022-10-16T03:17:49;8.93;;;3.10;;
69532;SDS011;56729;52.036;5.332;2022-10-16T03:18:51;9.40;;;3.60;;
69532;SDS011;56729;52.036;5.332;2022-10-16T03:19:53;5.32;;;3.05;;
69532;SDS011;56729;52.036;5.332;2022-10-16T03:20:55;9.98;;;3.15;;
69532;SDS011;56729;52.036;5.332;2022-10-16T03:21:59;8.45;;;2.78;;
69532;SDS011;56729;52.036;5.332;2022-10-16T03:23:01;13.27;;;4.20;;
69532;SDS011;56729;52.036;5.332;2022-10-16T03:24:04;11.05;;;3.60;;
69532;SDS011;56729;52.036;5.332;2022-10-16T03:25:06;8.67;;;2.97;;
69532;SDS011;56729;52.036;5.332;2022-10-16T03:26:08;10.13;;;3.15;;
69532;SDS011;56729;52.036;5.332;2022-10-16T03:27:10;13.18;;;3.65;;
69532;SDS011;56729;52.036;5.332;2022-10-16T03:28:12;10.65;;;3.10;;
69532;SDS011;56729;52.036;5.332;2022-10-16T03:29:14;19.80;;;4.00;;
69532;SDS011;56729;52.036;5.332;2022-10-16T03:30:15;10.30;;;3.58;;
69532;SDS011;56729;52.036;5.332;2022-10-16T03:31:17;8.52;;;3.30;;
69532;SDS011;56729;52.036;5.332;2022-10-16T03:32:19;7.78;;;4.00;;
69532;SDS011;56729;52.036;5.332;2022-10-16T03:33:21;10.43;;;3.60;;
69532;SDS011;56729;52.036;5.332;2022-10-16T03:34:23;9.00;;;3.72;;
69532;SDS011;56729;52.036;5.332;2022-10-16T03:35:25;9.37;;;3.30;;
69532;SDS011;56729;52.036;5.332;2022-10-16T03:36:27;10.48;;;4.13;;
69532;SDS011;56729;52.036;5.332;2022-10-16T03:37:30;9.02;;;3.30;;
69532;SDS011;56729;52.036;5.332;2022-10-16T03:38:31;8.82;;;3.25;;
69532;SDS011;56729;52.036;5.332;2022-10-16T03:39:33;10.60;;;3.33;;
69532;SDS011;56729;52.036;5.332;2022-10-16T03:40:35;11.48;;;3.35;;
69532;SDS011;56729;52.036;5.332;2022-10-16T03:41:37;9.30;;;3.30;;
69532;SDS011;56729;52.036;5.332;2022-10-16T03:42:39;9.82;;;3.42;;
69532;SDS011;56729;52.036;5.332;2022-10-16T03:43:41;10.85;;;3.20;;
69532;SDS011;56729;52.036;5.332;2022-10-16T03:44:43;10.15;;;3.40;;
69532;SDS011;56729;52.036;5.332;2022-10-16T03:45:45;12.07;;;3.97;;
69532;SDS011;56729;52.036;5.332;2022-10-16T03:46:47;11.13;;;6.43;;
69532;SDS011;56729;52.036;5.332;2022-10-16T03:47:50;10.48;;;3.00;;
69532;SDS011;56729;52.036;5.332;2022-10-16T03:48:52;12.75;;;4.22;;
69532;SDS011;56729;52.036;5.332;2022-10-16T03:49:53;13.77;;;3.85;;
69532;SDS011;56729;52.036;5.332;2022-10-16T03:50:55;12.48;;;3.58;;
69532;SDS011;56729;52.036;5.332;2022-10-16T03:51:57;6.15;;;3.15;;
69532;SDS011;56729;52.036;5.332;2022-10-16T03:52:59;16.23;;;4.55;;
69532;SDS011;56729;52.036;5.332;2022-10-16T03:54:01;18.00;;;3.58;;
69532;SDS011;56729;52.036;5.332;2022-10-16T03:55:04;7.45;;;3.30;;
69532;SDS011;56729;52.036;5.332;2022-10-16T03:56:06;11.23;;;3.30;;
69532;SDS011;56729;52.036;5.332;2022-10-16T03:57:08;9.77;;;3.50;;
69532;SDS011;56729;52.036;5.332;2022-10-16T03:58:11;9.32;;;3.75;;
69532;SDS011;56729;52.036;5.332;2022-10-16T03:59:12;9.73;;;3.70;;
69532;SDS011;56729;52.036;5.332;2022-10-16T04:00:15;6.82;;;3.25;;
69532;SDS011;56729;52.036;5.332;2022-10-16T04:01:17;13.05;;;3.67;;
69532;SDS011;56729;52.036;5.332;2022-10-16T04:02:18;13.05;;;3.50;;
69532;SDS011;56729;52.036;5.332;2022-10-16T04:03:20;11.18;;;3.92;;
69532;SDS011;56729;52.036;5.332;2022-10-16T04:04:22;8.40;;;3.67;;
69532;SDS011;56729;52.036;5.332;2022-10-16T04:05:26;7.72;;;3.80;;
69532;SDS011;56729;52.036;5.332;2022-10-16T04:06:28;15.70;;;4.23;;
69532;SDS011;56729;52.036;5.332;2022-10-16T04:07:30;10.77;;;4.53;;
69532;SDS011;56729;52.036;5.332;2022-10-16T04:08:32;7.57;;;3.65;;
69532;SDS011;56729;52.036;5.332;2022-10-16T04:09:36;9.50;;;3.83;;
69532;SDS011;56729;52.036;5.332;2022-10-16T04:10:38;7.20;;;3.05;;
69532;SDS011;56729;52.036;5.332;2022-10-16T04:11:39;10.70;;;3.05;;
69532;SDS011;56729;52.036;5.332;2022-10-16T04:12:41;10.35;;;3.67;;
69532;SDS011;56729;52.036;5.332;2022-10-16T04:13:43;11.38;;;3.28;;
69532;SDS011;56729;52.036;5.332;2022-10-16T04:14:45;13.02;;;2.95;;
69532;SDS011;56729;52.036;5.332;2022-10-16T04:15:47;14.18;;;3.60;;
69532;SDS011;56729;52.036;5.332;2022-10-16T04:16:49;10.13;;;3.27;;
69532;SDS011;56729;52.036;5.332;2022-10-16T04:17:51;7.55;;;3.35;;
69532;SDS011;56729;52.036;5.332;2022-10-16T04:18:53;11.68;;;3.00;;
69532;SDS011;56729;52.036;5.332;2022-10-16T04:19:55;11.63;;;3.35;;
69532;SDS011;56729;52.036;5.332;2022-10-16T04:21:01;8.23;;;2.78;;
69532;SDS011;56729;52.036;5.332;2022-10-16T04:22:04;8.20;;;3.13;;
69532;SDS011;56729;52.036;5.332;2022-10-16T04:23:08;12.63;;;2.60;;
69532;SDS011;56729;52.036;5.332;2022-10-16T04:24:09;13.63;;;3.30;;
69532;SDS011;56729;52.036;5.332;2022-10-16T04:25:12;8.65;;;2.72;;
69532;SDS011;56729;52.036;5.332;2022-10-16T04:26:14;8.40;;;2.53;;
69532;SDS011;56729;52.036;5.332;2022-10-16T04:27:16;7.23;;;4.10;;
69532;SDS011;56729;52.036;5.332;2022-10-16T04:28:18;8.07;;;3.03;;
69532;SDS011;56729;52.036;5.332;2022-10-16T04:29:20;7.38;;;2.70;;
69532;SDS011;56729;52.036;5.332;2022-10-16T04:30:23;4.90;;;2.60;;
69532;SDS011;56729;52.036;5.332;2022-10-16T04:31:25;6.22;;;2.72;;
69532;SDS011;56729;52.036;5.332;2022-10-16T04:32:27;6.28;;;2.65;;
69532;SDS011;56729;52.036;5.332;2022-10-16T04:33:29;7.97;;;2.58;;
69532;SDS011;56729;52.036;5.332;2022-10-16T04:34:31;10.02;;;2.47;;
69532;SDS011;56729;52.036;5.332;2022-10-16T04:35:33;15.10;;;3.13;;
69532;SDS011;56729;52.036;5.332;2022-10-16T04:36:34;11.32;;;3.15;;
69532;SDS011;56729;52.036;5.332;2022-10-16T04:37:36;6.83;;;2.70;;
69532;SDS011;56729;52.036;5.332;2022-10-16T04:38:38;8.35;;;2.45;;
69532;SDS011;56729;52.036;5.332;2022-10-16T04:39:40;10.70;;;2.50;;
69532;SDS011;56729;52.036;5.332;2022-10-16T04:40:42;12.98;;;2.50;;
69532;SDS011;56729;52.036;5.332;2022-10-16T04:41:44;4.60;;;2.75;;
69532;SDS011;56729;52.036;5.332;2022-10-16T04:42:46;6.90;;;2.13;;
69532;SDS011;56729;52.036;5.332;2022-10-16T04:43:48;9.13;;;2.65;;
69532;SDS011;56729;52.036;5.332;2022-10-16T04:44:50;11.55;;;2.97;;
69532;SDS011;56729;52.036;5.332;2022-10-16T04:45:51;11.40;;;2.58;;
69532;SDS011;56729;52.036;5.332;2022-10-16T04:46:54;13.82;;;2.95;;
69532;SDS011;56729;52.036;5.332;2022-10-16T04:47:59;15.93;;;2.67;;
69532;SDS011;56729;52.036;5.332;2022-10-16T04:49:01;15.05;;;2.35;;
69532;SDS011;56729;52.036;5.332;2022-10-16T04:50:03;9.30;;;2.92;;
69532;SDS011;56729;52.036;5.332;2022-10-16T04:51:05;12.70;;;3.03;;
69532;SDS011;56729;52.036;5.332;2022-10-16T04:52:07;8.00;;;2.80;;
69532;SDS011;56729;52.036;5.332;2022-10-16T04:53:10;9.38;;;2.75;;
69532;SDS011;56729;52.036;5.332;2022-10-16T04:54:12;6.47;;;2.95;;
69532;SDS011;56729;52.036;5.332;2022-10-16T04:55:14;11.07;;;3.15;;
69532;SDS011;56729;52.036;5.332;2022-10-16T04:56:16;13.43;;;1.88;;
69532;SDS011;56729;52.036;5.332;2022-10-16T04:57:19;12.18;;;2.90;;
69532;SDS011;56729;52.036;5.332;2022-10-16T04:58:20;5.43;;;2.30;;
69532;SDS011;56729;52.036;5.332;2022-10-16T04:59:22;10.10;;;2.65;;
69532;SDS011;56729;52.036;5.332;2022-10-16T05:00:25;7.45;;;2.33;;
69532;SDS011;56729;52.036;5.332;2022-10-16T05:01:27;14.93;;;2.42;;
69532;SDS011;56729;52.036;5.332;2022-10-16T05:02:29;8.77;;;2.70;;
69532;SDS011;56729;52.036;5.332;2022-10-16T05:03:31;5.00;;;2.38;;
69532;SDS011;56729;52.036;5.332;2022-10-16T05:04:33;5.63;;;2.38;;
69532;SDS011;56729;52.036;5.332;2022-10-16T05:05:35;9.27;;;2.38;;
69532;SDS011;56729;52.036;5.332;2022-10-16T05:06:38;16.13;;;4.22;;
69532;SDS011;56729;52.036;5.332;2022-10-16T05:07:40;11.30;;;2.72;;
69532;SDS011;56729;52.036;5.332;2022-10-16T05:08:42;8.27;;;4.00;;
69532;SDS011;56729;52.036;5.332;2022-10-16T05:09:43;4.07;;;2.30;;
69532;SDS011;56729;52.036;5.332;2022-10-16T05:10:45;12.85;;;2.20;;
69532;SDS011;56729;52.036;5.332;2022-10-16T05:11:47;8.05;;;2.42;;
69532;SDS011;56729;52.036;5.332;2022-10-16T05:12:49;11.13;;;2.45;;
69532;SDS011;56729;52.036;5.332;2022-10-16T05:13:52;6.82;;;2.78;;
69532;SDS011;56729;52.036;5.332;2022-10-16T05:14:56;16.45;;;3.28;;
69532;SDS011;56729;52.036;5.332;2022-10-16T05:16:00;6.65;;;3.10;;
69532;SDS011;56729;52.036;5.332;2022-10-16T05:17:02;9.20;;;2.70;;
69532;SDS011;56729;52.036;5.332;2022-10-16T05:18:04;7.00;;;2.75;;
69532;SDS011;56729;52.036;5.332;2022-10-16T05:19:06;5.77;;;2.13;;
69532;SDS011;56729;52.036;5.332;2022-10-16T05:20:28;10.13;;;4.40;;
69532;SDS011;56729;52.036;5.332;2022-10-16T05:21:30;9.25;;;3.90;;
69532;SDS011;56729;52.036;5.332;2022-10-16T05:22:32;8.43;;;2.50;;
69532;SDS011;56729;52.036;5.332;2022-10-16T05:23:34;10.10;;;2.65;;
69532;SDS011;56729;52.036;5.332;2022-10-16T05:24:35;4.32;;;2.40;;
69532;SDS011;56729;52.036;5.332;2022-10-16T05:25:37;6.78;;;2.53;;
69532;SDS011;56729;52.036;5.332;2022-10-16T05:26:39;9.35;;;4.50;;
69532;SDS011;56729;52.036;5.332;2022-10-16T05:27:41;9.75;;;5.03;;
69532;SDS011;56729;52.036;5.332;2022-10-16T05:28:43;7.78;;;2.70;;
69532;SDS011;56729;52.036;5.332;2022-10-16T05:29:45;11.17;;;3.77;;
69532;SDS011;56729;52.036;5.332;2022-10-16T05:30:48;9.95;;;2.70;;
69532;SDS011;56729;52.036;5.332;2022-10-16T05:31:50;6.20;;;2.75;;
69532;SDS011;56729;52.036;5.332;2022-10-16T05:32:54;7.32;;;2.88;;
69532;SDS011;56729;52.036;5.332;2022-10-16T05:33:59;9.20;;;3.13;;
69532;SDS011;56729;52.036;5.332;2022-10-16T05:35:01;5.38;;;2.47;;
69532;SDS011;56729;52.036;5.332;2022-10-16T05:36:10;9.02;;;2.72;;
69532;SDS011;56729;52.036;5.332;2022-10-16T05:37:12;9.57;;;3.30;;
69532;SDS011;56729;52.036;5.332;2022-10-16T05:38:15;7.10;;;2.80;;
69532;SDS011;56729;52.036;5.332;2022-10-16T05:39:20;7.05;;;3.03;;
69532;SDS011;56729;52.036;5.332;2022-10-16T05:40:23;10.33;;;6.07;;
69532;SDS011;56729;52.036;5.332;2022-10-16T05:41:25;9.25;;;3.05;;
69532;SDS011;56729;52.036;5.332;2022-10-16T05:42:27;5.53;;;2.80;;
69532;SDS011;56729;52.036;5.332;2022-10-16T05:43:30;8.20;;;3.17;;
69532;SDS011;56729;52.036;5.332;2022-10-16T05:44:33;11.88;;;3.85;;
69532;SDS011;56729;52.036;5.332;2022-10-16T05:45:35;7.38;;;2.72;;
69532;SDS011;56729;52.036;5.332;2022-10-16T05:46:37;7.30;;;2.55;;
69532;SDS011;56729;52.036;5.332;2022-10-16T05:47:39;10.75;;;2.90;;
69532;SDS011;56729;52.036;5.332;2022-10-16T05:48:41;12.13;;;5.38;;
69532;SDS011;56729;52.036;5.332;2022-10-16T05:49:43;13.57;;;4.28;;
69532;SDS011;56729;52.036;5.332;2022-10-16T05:50:45;6.87;;;3.07;;
69532;SDS011;56729;52.036;5.332;2022-10-16T05:51:46;9.52;;;3.15;;
69532;SDS011;56729;52.036;5.332;2022-10-16T05:52:48;9.75;;;3.95;;
69532;SDS011;56729;52.036;5.332;2022-10-16T05:53:51;6.30;;;3.70;;
69532;SDS011;56729;52.036;5.332;2022-10-16T05:54:53;11.13;;;3.38;;
69532;SDS011;56729;52.036;5.332;2022-10-16T05:55:55;9.38;;;3.15;;
69532;SDS011;56729;52.036;5.332;2022-10-16T05:56:57;6.95;;;2.92;;
69532;SDS011;56729;52.036;5.332;2022-10-16T05:58:00;12.20;;;4.70;;
69532;SDS011;56729;52.036;5.332;2022-10-16T05:59:03;9.07;;;2.80;;
69532;SDS011;56729;52.036;5.332;2022-10-16T06:00:05;11.75;;;6.18;;
69532;SDS011;56729;52.036;5.332;2022-10-16T06:01:16;7.27;;;4.17;;
69532;SDS011;56729;52.036;5.332;2022-10-16T06:02:20;9.32;;;3.55;;
69532;SDS011;56729;52.036;5.332;2022-10-16T06:03:22;17.60;;;2.88;;
69532;SDS011;56729;52.036;5.332;2022-10-16T06:04:24;10.50;;;6.07;;
69532;SDS011;56729;52.036;5.332;2022-10-16T06:05:26;17.50;;;3.90;;
69532;SDS011;56729;52.036;5.332;2022-10-16T06:06:28;7.70;;;2.90;;
69532;SDS011;56729;52.036;5.332;2022-10-16T06:07:33;18.95;;;3.00;;
69532;SDS011;56729;52.036;5.332;2022-10-16T06:08:36;10.65;;;3.20;;
69532;SDS011;56729;52.036;5.332;2022-10-16T06:09:38;11.43;;;3.30;;
69532;SDS011;56729;52.036;5.332;2022-10-16T06:10:40;16.67;;;4.82;;
69532;SDS011;56729;52.036;5.332;2022-10-16T06:11:42;6.53;;;2.97;;
69532;SDS011;56729;52.036;5.332;2022-10-16T06:12:44;8.15;;;3.42;;
69532;SDS011;56729;52.036;5.332;2022-10-16T06:13:49;5.65;;;2.88;;
69532;SDS011;56729;52.036;5.332;2022-10-16T06:14:53;16.92;;;3.95;;
69532;SDS011;56729;52.036;5.332;2022-10-16T06:15:56;8.52;;;3.00;;
69532;SDS011;56729;52.036;5.332;2022-10-16T06:17:00;9.88;;;3.28;;
69532;SDS011;56729;52.036;5.332;2022-10-16T06:18:01;9.98;;;3.08;;
69532;SDS011;56729;52.036;5.332;2022-10-16T06:19:03;11.25;;;3.25;;
69532;SDS011;56729;52.036;5.332;2022-10-16T06:20:07;9.98;;;3.22;;
69532;SDS011;56729;52.036;5.332;2022-10-16T06:21:11;7.13;;;3.13;;
69532;SDS011;56729;52.036;5.332;2022-10-16T06:22:17;11.53;;;3.20;;
69532;SDS011;56729;52.036;5.332;2022-10-16T06:23:19;9.68;;;3.65;;
69532;SDS011;56729;52.036;5.332;2022-10-16T06:24:21;11.30;;;2.95;;
69532;SDS011;56729;52.036;5.332;2022-10-16T06:25:23;12.57;;;3.45;;
69532;SDS011;56729;52.036;5.332;2022-10-16T06:26:26;8.27;;;3.40;;
69532;SDS011;56729;52.036;5.332;2022-10-16T06:27:30;8.27;;;2.90;;
69532;SDS011;56729;52.036;5.332;2022-10-16T06:28:31;7.13;;;3.00;;
69532;SDS011;56729;52.036;5.332;2022-10-16T06:29:34;8.45;;;3.20;;
69532;SDS011;56729;52.036;5.332;2022-10-16T06:30:36;10.77;;;3.45;;
69532;SDS011;56729;52.036;5.332;2022-10-16T06:31:39;10.48;;;2.90;;